sensor_id;sensor_type;location;lat;lon;timestamp;temperature;humidity
8862;DHT22;4799;50.996;4.754;2023-01-15T00:01:23;8.40;99.90
8862;DHT22;4799;50.996;4.754;2023-01-15T00:03:51;8.40;99.90
8862;DHT22;4799;50.996;4.754;2023-01-15T00:06:17;8.30;99.90
8862;DHT22;4799;50.996;4.754;2023-01-15T00:08:43;8.30;99.90
8862;DHT22;4799;50.996;4.754;2023-01-15T00:11:09;8.30;99.90
8862;DHT22;4799;50.996;4.754;2023-01-15T00:13:35;8.30;99.90
8862;DHT22;4799;50.996;4.754;2023-01-15T00:16:08;8.30;99.90
8862;DHT22;4799;50.996;4.754;2023-01-15T00:18:34;8.30;99.90
8862;DHT22;4799;50.996;4.754;2023-01-15T00:21:01;8.30;99.90
8862;DHT22;4799;50.996;4.754;2023-01-15T00:23:27;8.20;99.90
8862;DHT22;4799;50.996;4.754;2023-01-15T00:26:16;8.20;99.90
8862;DHT22;4799;50.996;4.754;2023-01-15T00:29:00;8.30;99.90
8862;DHT22;4799;50.996;4.754;2023-01-15T00:31:26;8.30;99.90
8862;DHT22;4799;50.996;4.754;2023-01-15T00:33:53;8.30;99.90
8862;DHT22;4799;50.996;4.754;2023-01-15T00:36:18;8.30;99.90
8862;DHT22;4799;50.996;4.754;2023-01-15T00:38:44;8.30;99.90
8862;DHT22;4799;50.996;4.754;2023-01-15T00:41:10;8.30;99.90
8862;DHT22;4799;50.996;4.754;2023-01-15T00:43:36;8.30;99.90
8862;DHT22;4799;50.996;4.754;2023-01-15T00:46:02;8.30;99.90
8862;DHT22;4799;50.996;4.754;2023-01-15T00:48:30;8.40;99.90
8862;DHT22;4799;50.996;4.754;2023-01-15T00:50:55;8.40;99.90
8862;DHT22;4799;50.996;4.754;2023-01-15T00:53:21;8.40;99.90
8862;DHT22;4799;50.996;4.754;2023-01-15T00:55:47;8.40;99.90
8862;DHT22;4799;50.996;4.754;2023-01-15T00:58:13;8.40;99.90
8862;DHT22;4799;50.996;4.754;2023-01-15T01:00:38;8.40;99.90
8862;DHT22;4799;50.996;4.754;2023-01-15T01:03:04;8.40;99.90
8862;DHT22;4799;50.996;4.754;2023-01-15T01:05:31;8.30;99.90
8862;DHT22;4799;50.996;4.754;2023-01-15T01:07:57;8.30;99.90
8862;DHT22;4799;50.996;4.754;2023-01-15T01:10:26;8.30;99.90
8862;DHT22;4799;50.996;4.754;2023-01-15T01:12:52;8.30;99.90
8862;DHT22;4799;50.996;4.754;2023-01-15T01:15:19;8.30;99.90
8862;DHT22;4799;50.996;4.754;2023-01-15T01:17:45;8.30;99.90
8862;DHT22;4799;50.996;4.754;2023-01-15T01:20:17;8.30;99.90
8862;DHT22;4799;50.996;4.754;2023-01-15T01:22:43;8.30;99.90
8862;DHT22;4799;50.996;4.754;2023-01-15T01:25:13;8.30;99.90
8862;DHT22;4799;50.996;4.754;2023-01-15T01:27:38;8.30;99.90
8862;DHT22;4799;50.996;4.754;2023-01-15T01:30:05;8.30;99.90
8862;DHT22;4799;50.996;4.754;2023-01-15T01:32:31;8.30;99.90
8862;DHT22;4799;50.996;4.754;2023-01-15T01:34:57;8.30;99.90
8862;DHT22;4799;50.996;4.754;2023-01-15T01:37:22;8.30;99.90
8862;DHT22;4799;50.996;4.754;2023-01-15T01:39:48;8.30;99.90
8862;DHT22;4799;50.996;4.754;2023-01-15T01:42:16;8.30;99.90
8862;DHT22;4799;50.996;4.754;2023-01-15T01:47:12;8.30;99.90
8862;DHT22;4799;50.996;4.754;2023-01-15T01:49:40;8.30;99.90
8862;DHT22;4799;50.996;4.754;2023-01-15T01:52:11;8.20;99.90
8862;DHT22;4799;50.996;4.754;2023-01-15T01:54:41;8.20;99.90
8862;DHT22;4799;50.996;4.754;2023-01-15T01:57:09;8.20;99.90
8862;DHT22;4799;50.996;4.754;2023-01-15T01:59:36;8.20;99.90
8862;DHT22;4799;50.996;4.754;2023-01-15T02:02:02;8.20;99.90
8862;DHT22;4799;50.996;4.754;2023-01-15T02:04:29;8.10;99.90
8862;DHT22;4799;50.996;4.754;2023-01-15T02:06:57;8.10;99.90
8862;DHT22;4799;50.996;4.754;2023-01-15T02:09:24;8.10;99.90
8862;DHT22;4799;50.996;4.754;2023-01-15T02:11:51;8.10;99.90
8862;DHT22;4799;50.996;4.754;2023-01-15T02:19:44;8.10;99.90
8862;DHT22;4799;50.996;4.754;2023-01-15T02:28:07;8.00;99.90
8862;DHT22;4799;50.996;4.754;2023-01-15T02:30:40;8.00;99.90
8862;DHT22;4799;50.996;4.754;2023-01-15T02:33:24;8.00;99.90
8862;DHT22;4799;50.996;4.754;2023-01-15T02:35:56;8.00;99.90
8862;DHT22;4799;50.996;4.754;2023-01-15T02:38:28;8.00;99.90
8862;DHT22;4799;50.996;4.754;2023-01-15T02:40:57;8.00;99.90
8862;DHT22;4799;50.996;4.754;2023-01-15T02:43:26;8.00;99.90
8862;DHT22;4799;50.996;4.754;2023-01-15T02:45:53;8.00;99.90
8862;DHT22;4799;50.996;4.754;2023-01-15T02:48:26;8.00;99.90
8862;DHT22;4799;50.996;4.754;2023-01-15T02:50:58;8.00;99.90
8862;DHT22;4799;50.996;4.754;2023-01-15T02:53:27;7.90;99.90
8862;DHT22;4799;50.996;4.754;2023-01-15T02:56:01;7.90;99.90
8862;DHT22;4799;50.996;4.754;2023-01-15T02:58:32;7.90;99.90
8862;DHT22;4799;50.996;4.754;2023-01-15T03:01:01;7.90;99.90
8862;DHT22;4799;50.996;4.754;2023-01-15T03:03:58;7.90;99.90
8862;DHT22;4799;50.996;4.754;2023-01-15T03:06:41;7.90;99.90
8862;DHT22;4799;50.996;4.754;2023-01-15T03:09:08;7.90;99.90
8862;DHT22;4799;50.996;4.754;2023-01-15T03:11:38;7.90;99.90
8862;DHT22;4799;50.996;4.754;2023-01-15T03:16:55;7.80;99.90
8862;DHT22;4799;50.996;4.754;2023-01-15T03:19:40;7.80;99.90
8862;DHT22;4799;50.996;4.754;2023-01-15T03:27:16;7.70;99.90
8862;DHT22;4799;50.996;4.754;2023-01-15T03:29:46;7.70;99.90
8862;DHT22;4799;50.996;4.754;2023-01-15T03:32:13;7.70;99.90
8862;DHT22;4799;50.996;4.754;2023-01-15T03:37:07;7.70;99.90
8862;DHT22;4799;50.996;4.754;2023-01-15T03:39:33;7.60;99.90
8862;DHT22;4799;50.996;4.754;2023-01-15T04:00:40;7.50;99.90
8862;DHT22;4799;50.996;4.754;2023-01-15T04:03:08;7.50;99.90
8862;DHT22;4799;50.996;4.754;2023-01-15T04:05:36;7.50;99.90
8862;DHT22;4799;50.996;4.754;2023-01-15T04:08:03;7.50;99.90
8862;DHT22;4799;50.996;4.754;2023-01-15T04:10:30;7.50;99.90
8862;DHT22;4799;50.996;4.754;2023-01-15T04:12:56;7.50;99.90
8862;DHT22;4799;50.996;4.754;2023-01-15T04:15:22;7.50;99.90
8862;DHT22;4799;50.996;4.754;2023-01-15T04:17:47;7.40;99.90
8862;DHT22;4799;50.996;4.754;2023-01-15T04:20:13;7.40;99.90
8862;DHT22;4799;50.996;4.754;2023-01-15T04:22:39;7.40;99.90
8862;DHT22;4799;50.996;4.754;2023-01-15T04:25:05;7.40;99.90
8862;DHT22;4799;50.996;4.754;2023-01-15T04:27:32;7.40;99.90
8862;DHT22;4799;50.996;4.754;2023-01-15T04:29:57;7.40;99.90
8862;DHT22;4799;50.996;4.754;2023-01-15T04:32:23;7.40;99.90
8862;DHT22;4799;50.996;4.754;2023-01-15T04:34:49;7.40;99.90
8862;DHT22;4799;50.996;4.754;2023-01-15T04:37:16;7.40;99.90
8862;DHT22;4799;50.996;4.754;2023-01-15T04:39:42;7.40;99.90
8862;DHT22;4799;50.996;4.754;2023-01-15T04:42:12;7.30;99.90
8862;DHT22;4799;50.996;4.754;2023-01-15T04:44:56;7.30;99.90
8862;DHT22;4799;50.996;4.754;2023-01-15T04:47:22;7.30;99.90
8862;DHT22;4799;50.996;4.754;2023-01-15T04:49:48;7.30;99.90
8862;DHT22;4799;50.996;4.754;2023-01-15T04:52:14;7.30;99.90
8862;DHT22;4799;50.996;4.754;2023-01-15T04:54:40;7.30;99.90
8862;DHT22;4799;50.996;4.754;2023-01-15T04:57:06;7.30;99.90
8862;DHT22;4799;50.996;4.754;2023-01-15T04:59:32;7.30;99.90
8862;DHT22;4799;50.996;4.754;2023-01-15T05:01:58;7.30;99.90
8862;DHT22;4799;50.996;4.754;2023-01-15T05:04:23;7.30;99.90
8862;DHT22;4799;50.996;4.754;2023-01-15T05:06:49;7.30;99.90
8862;DHT22;4799;50.996;4.754;2023-01-15T05:09:16;7.30;99.90
8862;DHT22;4799;50.996;4.754;2023-01-15T05:11:41;7.30;99.90
8862;DHT22;4799;50.996;4.754;2023-01-15T05:14:07;7.40;99.90
8862;DHT22;4799;50.996;4.754;2023-01-15T05:16:35;7.30;99.90
8862;DHT22;4799;50.996;4.754;2023-01-15T05:19:03;7.30;99.90
8862;DHT22;4799;50.996;4.754;2023-01-15T05:21:38;7.30;99.90
8862;DHT22;4799;50.996;4.754;2023-01-15T05:24:05;7.30;99.90
8862;DHT22;4799;50.996;4.754;2023-01-15T05:26:34;7.30;99.90
8862;DHT22;4799;50.996;4.754;2023-01-15T05:29:01;7.30;99.90
8862;DHT22;4799;50.996;4.754;2023-01-15T05:31:27;7.30;99.90
8862;DHT22;4799;50.996;4.754;2023-01-15T05:33:54;7.30;99.90
8862;DHT22;4799;50.996;4.754;2023-01-15T05:36:25;7.30;99.90
8862;DHT22;4799;50.996;4.754;2023-01-15T05:38:53;7.30;99.90
8862;DHT22;4799;50.996;4.754;2023-01-15T05:41:20;7.30;99.90
8862;DHT22;4799;50.996;4.754;2023-01-15T05:44:07;7.30;99.90
8862;DHT22;4799;50.996;4.754;2023-01-15T05:46:35;7.30;99.90
8862;DHT22;4799;50.996;4.754;2023-01-15T05:49:04;7.20;99.90
8862;DHT22;4799;50.996;4.754;2023-01-15T05:51:30;7.10;99.90
8862;DHT22;4799;50.996;4.754;2023-01-15T05:53:57;7.10;99.90
8862;DHT22;4799;50.996;4.754;2023-01-15T05:56:23;7.10;99.90
8862;DHT22;4799;50.996;4.754;2023-01-15T05:58:48;7.10;99.90
8862;DHT22;4799;50.996;4.754;2023-01-15T06:01:14;7.10;99.90
8862;DHT22;4799;50.996;4.754;2023-01-15T06:03:40;7.10;99.90
8862;DHT22;4799;50.996;4.754;2023-01-15T06:06:09;7.10;99.90
8862;DHT22;4799;50.996;4.754;2023-01-15T06:08:37;7.00;99.90
8862;DHT22;4799;50.996;4.754;2023-01-15T06:11:02;7.00;99.90
8862;DHT22;4799;50.996;4.754;2023-01-15T06:13:28;7.00;99.90
8862;DHT22;4799;50.996;4.754;2023-01-15T06:15:54;7.00;99.90
8862;DHT22;4799;50.996;4.754;2023-01-15T06:18:22;7.00;99.90
8862;DHT22;4799;50.996;4.754;2023-01-15T06:20:48;7.00;99.90
8862;DHT22;4799;50.996;4.754;2023-01-15T06:23:15;7.00;99.90
8862;DHT22;4799;50.996;4.754;2023-01-15T06:25:41;7.00;99.90
8862;DHT22;4799;50.996;4.754;2023-01-15T06:28:08;7.10;99.90
8862;DHT22;4799;50.996;4.754;2023-01-15T06:30:35;7.10;99.90
8862;DHT22;4799;50.996;4.754;2023-01-15T06:33:01;7.10;99.90
8862;DHT22;4799;50.996;4.754;2023-01-15T06:35:27;7.00;99.90
8862;DHT22;4799;50.996;4.754;2023-01-15T06:37:53;6.90;99.90
8862;DHT22;4799;50.996;4.754;2023-01-15T06:40:19;6.90;99.90
8862;DHT22;4799;50.996;4.754;2023-01-15T06:42:45;6.70;99.90
8862;DHT22;4799;50.996;4.754;2023-01-15T06:45:37;6.60;99.90
8862;DHT22;4799;50.996;4.754;2023-01-15T06:48:22;6.50;99.90
8862;DHT22;4799;50.996;4.754;2023-01-15T06:50:49;6.40;99.90
8862;DHT22;4799;50.996;4.754;2023-01-15T06:53:14;6.40;99.90
8862;DHT22;4799;50.996;4.754;2023-01-15T06:55:40;6.30;99.90
8862;DHT22;4799;50.996;4.754;2023-01-15T06:58:06;6.20;99.90
8862;DHT22;4799;50.996;4.754;2023-01-15T07:00:31;6.10;99.90
8862;DHT22;4799;50.996;4.754;2023-01-15T07:03:02;6.10;99.90
8862;DHT22;4799;50.996;4.754;2023-01-15T07:05:28;6.00;99.90
8862;DHT22;4799;50.996;4.754;2023-01-15T07:07:54;5.90;99.90
8862;DHT22;4799;50.996;4.754;2023-01-15T07:10:20;5.80;99.90
8862;DHT22;4799;50.996;4.754;2023-01-15T07:12:45;5.70;99.90
8862;DHT22;4799;50.996;4.754;2023-01-15T07:15:11;5.60;99.90
8862;DHT22;4799;50.996;4.754;2023-01-15T07:17:37;5.60;99.90
8862;DHT22;4799;50.996;4.754;2023-01-15T07:20:03;5.50;99.90
8862;DHT22;4799;50.996;4.754;2023-01-15T07:22:30;5.50;99.90
8862;DHT22;4799;50.996;4.754;2023-01-15T07:24:55;5.50;99.90
8862;DHT22;4799;50.996;4.754;2023-01-15T07:27:21;5.40;99.90
8862;DHT22;4799;50.996;4.754;2023-01-15T07:29:47;5.40;99.90
8862;DHT22;4799;50.996;4.754;2023-01-15T07:32:14;5.30;99.90
8862;DHT22;4799;50.996;4.754;2023-01-15T07:34:40;5.30;99.90
8862;DHT22;4799;50.996;4.754;2023-01-15T07:37:06;5.30;99.90
8862;DHT22;4799;50.996;4.754;2023-01-15T07:39:32;5.20;99.90
8862;DHT22;4799;50.996;4.754;2023-01-15T07:41:58;5.20;99.90
8862;DHT22;4799;50.996;4.754;2023-01-15T07:44:49;5.20;99.90
8862;DHT22;4799;50.996;4.754;2023-01-15T07:47:33;5.20;99.90
8862;DHT22;4799;50.996;4.754;2023-01-15T07:50:20;5.10;99.90
8862;DHT22;4799;50.996;4.754;2023-01-15T07:52:47;5.20;99.90
8862;DHT22;4799;50.996;4.754;2023-01-15T07:55:13;5.10;99.90
8862;DHT22;4799;50.996;4.754;2023-01-15T07:57:40;5.10;99.90
8862;DHT22;4799;50.996;4.754;2023-01-15T08:00:08;5.20;99.90
8862;DHT22;4799;50.996;4.754;2023-01-15T08:02:34;5.10;99.90
8862;DHT22;4799;50.996;4.754;2023-01-15T08:05:00;5.20;99.90
8862;DHT22;4799;50.996;4.754;2023-01-15T08:07:26;5.10;99.90
8862;DHT22;4799;50.996;4.754;2023-01-15T08:09:52;5.10;99.90
8862;DHT22;4799;50.996;4.754;2023-01-15T08:12:18;5.10;99.90
8862;DHT22;4799;50.996;4.754;2023-01-15T08:15:02;5.20;99.90
8862;DHT22;4799;50.996;4.754;2023-01-15T08:17:44;5.20;99.90
8862;DHT22;4799;50.996;4.754;2023-01-15T08:20:16;5.20;99.90
8862;DHT22;4799;50.996;4.754;2023-01-15T08:22:42;5.20;99.90
8862;DHT22;4799;50.996;4.754;2023-01-15T08:25:11;5.20;99.90
8862;DHT22;4799;50.996;4.754;2023-01-15T08:27:38;5.20;99.90
8862;DHT22;4799;50.996;4.754;2023-01-15T08:30:06;5.30;99.90
8862;DHT22;4799;50.996;4.754;2023-01-15T08:32:32;5.30;99.90
8862;DHT22;4799;50.996;4.754;2023-01-15T08:34:58;5.40;99.90
8862;DHT22;4799;50.996;4.754;2023-01-15T08:37:24;5.40;99.90
8862;DHT22;4799;50.996;4.754;2023-01-15T08:39:50;5.40;99.90
8862;DHT22;4799;50.996;4.754;2023-01-15T08:42:18;5.50;99.90
8862;DHT22;4799;50.996;4.754;2023-01-15T08:44:45;5.50;99.90
8862;DHT22;4799;50.996;4.754;2023-01-15T08:47:10;5.50;99.90
8862;DHT22;4799;50.996;4.754;2023-01-15T08:49:36;5.60;99.90
8862;DHT22;4799;50.996;4.754;2023-01-15T08:52:02;5.60;99.90
8862;DHT22;4799;50.996;4.754;2023-01-15T08:54:28;5.60;99.90
8862;DHT22;4799;50.996;4.754;2023-01-15T08:56:54;5.60;99.90
8862;DHT22;4799;50.996;4.754;2023-01-15T08:59:20;5.70;99.90
8862;DHT22;4799;50.996;4.754;2023-01-15T09:01:46;5.70;99.90
8862;DHT22;4799;50.996;4.754;2023-01-15T09:04:14;5.70;99.90
8862;DHT22;4799;50.996;4.754;2023-01-15T09:06:40;5.80;99.90
8862;DHT22;4799;50.996;4.754;2023-01-15T09:09:06;5.80;99.90
8862;DHT22;4799;50.996;4.754;2023-01-15T09:11:32;5.90;99.90
8862;DHT22;4799;50.996;4.754;2023-01-15T09:13:58;5.90;99.90
8862;DHT22;4799;50.996;4.754;2023-01-15T09:16:24;6.00;99.90
8862;DHT22;4799;50.996;4.754;2023-01-15T09:18:52;6.10;99.90
8862;DHT22;4799;50.996;4.754;2023-01-15T09:21:18;6.10;99.90
8862;DHT22;4799;50.996;4.754;2023-01-15T09:23:44;6.20;99.90
8862;DHT22;4799;50.996;4.754;2023-01-15T09:26:40;6.30;99.90
8862;DHT22;4799;50.996;4.754;2023-01-15T09:29:06;6.40;99.90
8862;DHT22;4799;50.996;4.754;2023-01-15T09:31:33;6.40;99.90
8862;DHT22;4799;50.996;4.754;2023-01-15T09:33:59;6.50;99.90
8862;DHT22;4799;50.996;4.754;2023-01-15T09:36:33;6.60;99.90
8862;DHT22;4799;50.996;4.754;2023-01-15T09:39:00;6.70;99.90
8862;DHT22;4799;50.996;4.754;2023-01-15T09:47:26;6.90;99.90
8862;DHT22;4799;50.996;4.754;2023-01-15T09:50:17;7.00;99.90
8862;DHT22;4799;50.996;4.754;2023-01-15T09:55:28;7.10;99.90
8862;DHT22;4799;50.996;4.754;2023-01-15T09:57:57;7.10;99.90
8862;DHT22;4799;50.996;4.754;2023-01-15T10:00:27;7.20;99.90
8862;DHT22;4799;50.996;4.754;2023-01-15T10:02:55;7.10;99.90
8862;DHT22;4799;50.996;4.754;2023-01-15T10:10:32;7.10;99.90
8862;DHT22;4799;50.996;4.754;2023-01-15T10:13:08;7.10;99.90
8862;DHT22;4799;50.996;4.754;2023-01-15T10:15:40;7.10;99.90
8862;DHT22;4799;50.996;4.754;2023-01-15T10:18:10;7.10;99.90
8862;DHT22;4799;50.996;4.754;2023-01-15T10:20:48;7.10;99.90
8862;DHT22;4799;50.996;4.754;2023-01-15T10:23:32;7.20;99.90
8862;DHT22;4799;50.996;4.754;2023-01-15T10:26:27;7.20;99.90
8862;DHT22;4799;50.996;4.754;2023-01-15T10:48:20;6.90;99.90
8862;DHT22;4799;50.996;4.754;2023-01-15T10:50:48;6.90;99.90
8862;DHT22;4799;50.996;4.754;2023-01-15T10:53:31;6.90;99.90
8862;DHT22;4799;50.996;4.754;2023-01-15T10:56:04;6.90;99.90
8862;DHT22;4799;50.996;4.754;2023-01-15T10:58:50;6.90;99.90
8862;DHT22;4799;50.996;4.754;2023-01-15T11:01:19;7.00;99.90
8862;DHT22;4799;50.996;4.754;2023-01-15T11:03:48;7.00;99.90
8862;DHT22;4799;50.996;4.754;2023-01-15T11:06:16;7.00;99.90
8862;DHT22;4799;50.996;4.754;2023-01-15T11:08:45;7.00;99.90
8862;DHT22;4799;50.996;4.754;2023-01-15T11:13:54;7.10;99.90
8862;DHT22;4799;50.996;4.754;2023-01-15T11:16:41;7.10;99.90
8862;DHT22;4799;50.996;4.754;2023-01-15T11:19:35;7.20;99.90
8862;DHT22;4799;50.996;4.754;2023-01-15T11:22:20;7.20;99.90
8862;DHT22;4799;50.996;4.754;2023-01-15T11:24:51;7.30;99.90
8862;DHT22;4799;50.996;4.754;2023-01-15T11:27:24;7.30;99.90
8862;DHT22;4799;50.996;4.754;2023-01-15T11:29:56;7.30;99.90
8862;DHT22;4799;50.996;4.754;2023-01-15T11:32:53;7.40;99.90
8862;DHT22;4799;50.996;4.754;2023-01-15T11:35:19;7.50;99.90
8862;DHT22;4799;50.996;4.754;2023-01-15T11:37:44;7.70;99.90
8862;DHT22;4799;50.996;4.754;2023-01-15T11:40:18;7.90;99.90
8862;DHT22;4799;50.996;4.754;2023-01-15T11:42:46;8.10;99.90
8862;DHT22;4799;50.996;4.754;2023-01-15T11:45:30;8.20;99.90
8862;DHT22;4799;50.996;4.754;2023-01-15T11:48:18;8.40;99.90
8862;DHT22;4799;50.996;4.754;2023-01-15T11:51:14;8.50;99.90
8862;DHT22;4799;50.996;4.754;2023-01-15T11:54:02;8.60;99.90
8862;DHT22;4799;50.996;4.754;2023-01-15T11:56:30;8.60;99.90
8862;DHT22;4799;50.996;4.754;2023-01-15T11:59:00;8.70;99.90
8862;DHT22;4799;50.996;4.754;2023-01-15T12:01:36;8.70;99.90
8862;DHT22;4799;50.996;4.754;2023-01-15T12:04:06;8.70;99.90
8862;DHT22;4799;50.996;4.754;2023-01-15T12:06:44;8.60;99.90
8862;DHT22;4799;50.996;4.754;2023-01-15T12:20:39;8.50;99.90
8862;DHT22;4799;50.996;4.754;2023-01-15T12:29:10;8.60;99.90
8862;DHT22;4799;50.996;4.754;2023-01-15T12:31:43;8.60;99.90
8862;DHT22;4799;50.996;4.754;2023-01-15T12:37:09;8.70;99.90
8862;DHT22;4799;50.996;4.754;2023-01-15T12:39:46;8.70;99.90
8862;DHT22;4799;50.996;4.754;2023-01-15T12:42:17;8.80;99.90
8862;DHT22;4799;50.996;4.754;2023-01-15T12:45:24;8.80;99.90
8862;DHT22;4799;50.996;4.754;2023-01-15T12:48:06;8.80;99.90
8862;DHT22;4799;50.996;4.754;2023-01-15T12:50:58;8.70;99.90
8862;DHT22;4799;50.996;4.754;2023-01-15T12:53:58;8.70;99.90
8862;DHT22;4799;50.996;4.754;2023-01-15T12:59:21;8.70;99.90
8862;DHT22;4799;50.996;4.754;2023-01-15T13:02:11;8.70;99.90
8862;DHT22;4799;50.996;4.754;2023-01-15T13:04:49;8.70;99.90
8862;DHT22;4799;50.996;4.754;2023-01-15T13:07:22;8.70;99.90
8862;DHT22;4799;50.996;4.754;2023-01-15T13:10:02;8.70;99.90
8862;DHT22;4799;50.996;4.754;2023-01-15T13:12:32;8.80;99.90
8862;DHT22;4799;50.996;4.754;2023-01-15T13:14:59;8.90;99.90
8862;DHT22;4799;50.996;4.754;2023-01-15T13:17:46;8.90;99.90
8862;DHT22;4799;50.996;4.754;2023-01-15T13:20:48;8.90;99.90
8862;DHT22;4799;50.996;4.754;2023-01-15T13:23:43;8.90;99.90
8862;DHT22;4799;50.996;4.754;2023-01-15T13:28:46;8.80;99.90
8862;DHT22;4799;50.996;4.754;2023-01-15T13:32:17;8.80;99.90
8862;DHT22;4799;50.996;4.754;2023-01-15T13:34:23;8.80;99.90
8862;DHT22;4799;50.996;4.754;2023-01-15T13:36:52;8.90;99.90
8862;DHT22;4799;50.996;4.754;2023-01-15T13:39:29;8.80;99.90
8862;DHT22;4799;50.996;4.754;2023-01-15T13:41:57;8.80;99.90
8862;DHT22;4799;50.996;4.754;2023-01-15T13:44:49;8.70;99.90
8862;DHT22;4799;50.996;4.754;2023-01-15T13:47:24;8.70;99.90
8862;DHT22;4799;50.996;4.754;2023-01-15T13:49:57;8.60;99.90
8862;DHT22;4799;50.996;4.754;2023-01-15T13:54:54;8.50;99.90
8862;DHT22;4799;50.996;4.754;2023-01-15T13:57:31;8.50;99.90
8862;DHT22;4799;50.996;4.754;2023-01-15T13:59:59;8.50;99.90
8862;DHT22;4799;50.996;4.754;2023-01-15T14:02:34;8.50;99.90
8862;DHT22;4799;50.996;4.754;2023-01-15T14:05:24;8.50;99.90
8862;DHT22;4799;50.996;4.754;2023-01-15T14:07:51;8.50;99.90
8862;DHT22;4799;50.996;4.754;2023-01-15T14:13:18;8.40;99.90
8862;DHT22;4799;50.996;4.754;2023-01-15T14:16:19;8.30;99.90
8862;DHT22;4799;50.996;4.754;2023-01-15T14:27:30;8.20;99.90
8862;DHT22;4799;50.996;4.754;2023-01-15T14:30:18;8.10;99.90
8862;DHT22;4799;50.996;4.754;2023-01-15T14:33:07;8.00;99.90
8862;DHT22;4799;50.996;4.754;2023-01-15T14:35:42;8.00;99.90
8862;DHT22;4799;50.996;4.754;2023-01-15T14:38:17;7.90;99.90
8862;DHT22;4799;50.996;4.754;2023-01-15T14:41:01;7.90;99.90
8862;DHT22;4799;50.996;4.754;2023-01-15T14:43:32;7.90;99.90
8862;DHT22;4799;50.996;4.754;2023-01-15T14:46:30;7.90;99.90
8862;DHT22;4799;50.996;4.754;2023-01-15T14:48:59;7.90;99.90
8862;DHT22;4799;50.996;4.754;2023-01-15T14:51:33;7.90;99.90
8862;DHT22;4799;50.996;4.754;2023-01-15T14:54:08;7.90;99.90
8862;DHT22;4799;50.996;4.754;2023-01-15T14:56:51;7.80;99.90
8862;DHT22;4799;50.996;4.754;2023-01-15T14:59:25;7.80;99.90
8862;DHT22;4799;50.996;4.754;2023-01-15T15:02:00;7.80;99.90
8862;DHT22;4799;50.996;4.754;2023-01-15T15:04:38;7.80;99.90
8862;DHT22;4799;50.996;4.754;2023-01-15T15:07:17;7.70;99.90
8862;DHT22;4799;50.996;4.754;2023-01-15T15:09:47;7.70;99.90
8862;DHT22;4799;50.996;4.754;2023-01-15T15:12:43;7.70;99.90
8862;DHT22;4799;50.996;4.754;2023-01-15T15:21:10;7.60;99.90
8862;DHT22;4799;50.996;4.754;2023-01-15T15:26:25;7.60;99.90
8862;DHT22;4799;50.996;4.754;2023-01-15T15:28:57;7.60;99.90
8862;DHT22;4799;50.996;4.754;2023-01-15T15:31:24;7.60;99.90
8862;DHT22;4799;50.996;4.754;2023-01-15T15:33:52;7.60;99.90
8862;DHT22;4799;50.996;4.754;2023-01-15T15:36:19;7.50;99.90
8862;DHT22;4799;50.996;4.754;2023-01-15T15:38:53;7.50;99.90
8862;DHT22;4799;50.996;4.754;2023-01-15T15:41:19;7.50;99.90
8862;DHT22;4799;50.996;4.754;2023-01-15T15:44:12;7.50;99.90
8862;DHT22;4799;50.996;4.754;2023-01-15T15:47:15;7.50;99.90
8862;DHT22;4799;50.996;4.754;2023-01-15T15:49:59;7.50;99.90
8862;DHT22;4799;50.996;4.754;2023-01-15T15:52:25;7.40;99.90
8862;DHT22;4799;50.996;4.754;2023-01-15T15:55:02;7.40;99.90
8862;DHT22;4799;50.996;4.754;2023-01-15T15:57:32;7.30;99.90
8862;DHT22;4799;50.996;4.754;2023-01-15T15:59:59;7.30;99.90
8862;DHT22;4799;50.996;4.754;2023-01-15T16:02:32;7.30;99.90
8862;DHT22;4799;50.996;4.754;2023-01-15T16:05:25;7.30;99.90
8862;DHT22;4799;50.996;4.754;2023-01-15T16:07:53;7.30;99.90
8862;DHT22;4799;50.996;4.754;2023-01-15T16:10:30;7.30;99.90
8862;DHT22;4799;50.996;4.754;2023-01-15T16:13:00;7.30;99.90
8862;DHT22;4799;50.996;4.754;2023-01-15T16:15:31;7.20;99.90
8862;DHT22;4799;50.996;4.754;2023-01-15T16:17:59;7.20;99.90
8862;DHT22;4799;50.996;4.754;2023-01-15T16:20:26;7.20;99.90
8862;DHT22;4799;50.996;4.754;2023-01-15T16:23:01;7.10;99.90
8862;DHT22;4799;50.996;4.754;2023-01-15T16:25:36;7.10;99.90
8862;DHT22;4799;50.996;4.754;2023-01-15T16:28:03;7.10;99.90
8862;DHT22;4799;50.996;4.754;2023-01-15T16:30:30;7.10;99.90
8862;DHT22;4799;50.996;4.754;2023-01-15T16:33:02;7.10;99.90
8862;DHT22;4799;50.996;4.754;2023-01-15T16:35:30;7.00;99.90
8862;DHT22;4799;50.996;4.754;2023-01-15T16:37:59;6.90;99.90
8862;DHT22;4799;50.996;4.754;2023-01-15T16:40:31;6.90;99.90
8862;DHT22;4799;50.996;4.754;2023-01-15T16:43:16;6.80;99.90
8862;DHT22;4799;50.996;4.754;2023-01-15T16:46:15;6.80;99.90
8862;DHT22;4799;50.996;4.754;2023-01-15T16:48:42;6.80;99.90
8862;DHT22;4799;50.996;4.754;2023-01-15T16:53:56;6.70;99.90
8862;DHT22;4799;50.996;4.754;2023-01-15T16:59:04;6.70;99.90
8862;DHT22;4799;50.996;4.754;2023-01-15T17:01:41;6.60;99.90
8862;DHT22;4799;50.996;4.754;2023-01-15T17:04:27;6.60;99.90
8862;DHT22;4799;50.996;4.754;2023-01-15T17:06:56;6.60;99.90
8862;DHT22;4799;50.996;4.754;2023-01-15T17:09:22;6.50;99.90
8862;DHT22;4799;50.996;4.754;2023-01-15T17:11:49;6.50;99.90
8862;DHT22;4799;50.996;4.754;2023-01-15T17:14:24;6.40;99.90
8862;DHT22;4799;50.996;4.754;2023-01-15T17:17:21;6.40;99.90
8862;DHT22;4799;50.996;4.754;2023-01-15T17:19:49;6.40;99.90
8862;DHT22;4799;50.996;4.754;2023-01-15T17:22:27;6.40;99.90
8862;DHT22;4799;50.996;4.754;2023-01-15T17:24:55;6.40;99.90
8862;DHT22;4799;50.996;4.754;2023-01-15T17:27:23;6.40;99.90
8862;DHT22;4799;50.996;4.754;2023-01-15T17:29:49;6.40;99.90
8862;DHT22;4799;50.996;4.754;2023-01-15T17:32:17;6.40;99.90
8862;DHT22;4799;50.996;4.754;2023-01-15T17:34:44;6.50;99.90
8862;DHT22;4799;50.996;4.754;2023-01-15T17:37:10;6.40;99.90
8862;DHT22;4799;50.996;4.754;2023-01-15T17:39:36;6.50;99.90
8862;DHT22;4799;50.996;4.754;2023-01-15T17:42:13;6.40;99.90
8862;DHT22;4799;50.996;4.754;2023-01-15T17:44:39;6.40;99.90
8862;DHT22;4799;50.996;4.754;2023-01-15T17:47:05;6.30;99.90
8862;DHT22;4799;50.996;4.754;2023-01-15T17:49:31;6.20;99.90
8862;DHT22;4799;50.996;4.754;2023-01-15T17:51:57;6.10;99.90
8862;DHT22;4799;50.996;4.754;2023-01-15T17:54:23;6.10;99.90
8862;DHT22;4799;50.996;4.754;2023-01-15T17:57:08;6.00;99.90
8862;DHT22;4799;50.996;4.754;2023-01-15T17:59:52;6.00;99.90
8862;DHT22;4799;50.996;4.754;2023-01-15T18:02:36;5.90;99.90
8862;DHT22;4799;50.996;4.754;2023-01-15T18:05:21;5.90;99.90
8862;DHT22;4799;50.996;4.754;2023-01-15T18:07:50;5.90;99.90
8862;DHT22;4799;50.996;4.754;2023-01-15T18:10:18;5.90;99.90
8862;DHT22;4799;50.996;4.754;2023-01-15T18:12:46;5.90;99.90
8862;DHT22;4799;50.996;4.754;2023-01-15T18:15:12;5.90;99.90
8862;DHT22;4799;50.996;4.754;2023-01-15T18:17:38;5.90;99.90
8862;DHT22;4799;50.996;4.754;2023-01-15T18:20:04;6.00;99.90
8862;DHT22;4799;50.996;4.754;2023-01-15T18:22:30;5.90;99.90
8862;DHT22;4799;50.996;4.754;2023-01-15T18:24:56;5.90;99.90
8862;DHT22;4799;50.996;4.754;2023-01-15T18:27:21;5.90;99.90
8862;DHT22;4799;50.996;4.754;2023-01-15T18:29:47;5.90;99.90
8862;DHT22;4799;50.996;4.754;2023-01-15T18:32:14;5.80;99.90
8862;DHT22;4799;50.996;4.754;2023-01-15T18:34:40;5.80;99.90
8862;DHT22;4799;50.996;4.754;2023-01-15T18:37:05;5.70;99.90
8862;DHT22;4799;50.996;4.754;2023-01-15T18:39:31;5.80;99.90
8862;DHT22;4799;50.996;4.754;2023-01-15T18:41:58;5.70;99.90
8862;DHT22;4799;50.996;4.754;2023-01-15T18:44:24;5.80;99.90
8862;DHT22;4799;50.996;4.754;2023-01-15T18:47:11;5.70;99.90
8862;DHT22;4799;50.996;4.754;2023-01-15T18:49:39;5.70;99.90
8862;DHT22;4799;50.996;4.754;2023-01-15T18:52:05;5.60;99.90
8862;DHT22;4799;50.996;4.754;2023-01-15T18:54:50;5.70;99.90
8862;DHT22;4799;50.996;4.754;2023-01-15T18:57:15;5.70;99.90